createdAt,value
2022-10-01T00:00:02.553Z,7.63
2022-10-01T00:05:25.777Z,7.62
2022-10-01T00:10:30.446Z,7.61
2022-10-01T00:15:33.347Z,7.59
2022-10-01T00:20:40.447Z,7.55
2022-10-01T00:25:43.861Z,7.55
2022-10-01T00:30:48.181Z,7.57
2022-10-01T00:35:54.487Z,7.58
2022-10-01T00:40:58.718Z,7.53
2022-10-01T00:46:30.910Z,7.46
2022-10-01T00:51:42.418Z,7.45
2022-10-01T00:56:45.838Z,7.48
2022-10-01T01:01:48.970Z,7.55
2022-10-01T01:06:57.959Z,7.61
2022-10-01T01:12:36.222Z,7.65
2022-10-01T01:17:56.024Z,7.67
2022-10-01T01:23:16.743Z,7.66
2022-10-01T01:28:24.295Z,7.64
2022-10-01T01:33:31.154Z,7.65
2022-10-01T01:38:41.432Z,7.66
2022-10-01T01:43:48.738Z,7.69
2022-10-01T01:48:53.457Z,7.73
2022-10-01T01:53:56.287Z,7.80
2022-10-01T01:59:00.727Z,7.80
2022-10-01T02:04:07.813Z,7.75
2022-10-01T02:09:21.587Z,7.66
2022-10-01T02:14:46.616Z,7.55
2022-10-01T02:19:59.451Z,7.45
2022-10-01T02:25:06.244Z,7.35
2022-10-01T02:30:11.508Z,7.26
2022-10-01T02:35:18.711Z,7.20
2022-10-01T02:40:28.070Z,7.13
2022-10-01T02:45:33.686Z,7.04
2022-10-01T02:51:04.394Z,6.95
2022-10-01T02:56:08.931Z,6.90
2022-10-01T03:01:11.978Z,6.91
2022-10-01T03:06:14.841Z,6.93
2022-10-01T03:11:17.746Z,6.92
2022-10-01T03:16:20.860Z,6.86
2022-10-01T03:21:23.966Z,6.76
2022-10-01T03:26:26.868Z,6.63
2022-10-01T03:31:29.796Z,6.52
2022-10-01T03:36:32.778Z,6.48
2022-10-01T03:41:35.723Z,6.41
2022-10-01T03:46:38.894Z,6.36
2022-10-01T03:51:42.105Z,6.30
2022-10-01T03:56:44.917Z,6.22
2022-10-01T04:01:48.170Z,6.17
2022-10-01T04:06:51.230Z,6.10
2022-10-01T04:11:54.483Z,6.05
2022-10-01T04:16:57.343Z,6.05
2022-10-01T04:22:00.247Z,6.05
2022-10-01T04:27:03.151Z,6.04
2022-10-01T04:32:06.113Z,6.01
2022-10-01T04:37:09.165Z,5.94
2022-10-01T04:42:15.343Z,5.90
2022-10-01T04:47:18.252Z,5.90
2022-10-01T04:52:21.055Z,5.93
2022-10-01T04:57:23.956Z,6.00
2022-10-01T05:02:26.734Z,6.07
2022-10-01T05:07:33.963Z,6.25
2022-10-01T05:12:36.764Z,6.74
2022-10-01T05:17:39.770Z,7.36
2022-10-01T05:22:42.574Z,8.05
2022-10-01T05:27:46.245Z,8.80
2022-10-01T05:32:57.292Z,9.57
2022-10-01T05:38:02.035Z,10.44
2022-10-01T05:43:04.942Z,11.39
2022-10-01T05:48:09.590Z,12.27
2022-10-01T05:53:14.146Z,13.16
2022-10-01T05:58:17.033Z,13.95
2022-10-01T06:03:20.193Z,14.63
2022-10-01T06:08:23.369Z,15.39
2022-10-01T06:13:27.508Z,16.33
2022-10-01T06:18:30.798Z,17.31
2022-10-01T06:23:34.214Z,18.24
2022-10-01T06:28:37.018Z,19.06
2022-10-01T06:33:39.921Z,19.93
2022-10-01T06:38:43.237Z,20.91
2022-10-01T06:43:48.534Z,21.75
2022-10-01T06:48:51.397Z,22.47
2022-10-01T06:53:54.200Z,23.30
2022-10-01T06:58:57.103Z,23.85
2022-10-01T07:03:59.906Z,24.30
2022-10-01T07:09:02.707Z,24.90
2022-10-01T07:14:05.919Z,25.72
2022-10-01T07:19:08.824Z,26.25
2022-10-01T07:24:11.608Z,26.77
2022-10-01T07:29:14.429Z,27.48
2022-10-01T07:34:17.331Z,27.96
2022-10-01T07:39:21.079Z,28.58
2022-10-01T07:44:23.957Z,29.38
2022-10-01T07:49:27.634Z,29.70
2022-10-01T07:54:30.483Z,29.70
2022-10-01T07:59:33.696Z,29.91
2022-10-01T08:04:55.440Z,30.23
2022-10-01T08:09:58.245Z,30.54
2022-10-01T08:15:02.892Z,30.75
2022-10-01T08:20:08.464Z,31.40
2022-10-01T08:25:11.335Z,32.10
2022-10-01T08:30:14.164Z,32.91
2022-10-01T08:35:16.964Z,33.68
2022-10-01T08:40:21.908Z,33.70
2022-10-01T08:45:32.531Z,33.82
2022-10-01T08:50:44.726Z,34.13
2022-10-01T08:55:47.815Z,34.90
2022-10-01T09:00:50.769Z,35.11
2022-10-01T09:06:22.623Z,34.88
2022-10-01T09:11:38.223Z,35.44
2022-10-01T09:16:55.973Z,35.80
2022-10-01T09:22:00.125Z,36.53
2022-10-01T09:27:08.805Z,36.29
2022-10-01T09:32:16.475Z,35.29
2022-10-01T09:37:32.809Z,35.52
2022-10-01T09:42:35.778Z,35.65
2022-10-01T09:47:39.212Z,35.40
2022-10-01T09:52:44.055Z,35.23
2022-10-01T09:57:57.916Z,35.24
2022-10-01T10:03:01.232Z,35.46
2022-10-01T10:08:43.047Z,35.46
2022-10-01T10:13:54.961Z,35.33
2022-10-01T10:19:04.828Z,35.60
2022-10-01T10:24:23.916Z,35.52
2022-10-01T10:29:37.467Z,35.26
2022-10-01T10:34:48.258Z,34.90
2022-10-01T10:39:53.327Z,35.22
2022-10-01T10:45:03.692Z,35.62
2022-10-01T10:50:19.281Z,35.60
2022-10-01T10:55:24.156Z,35.29
2022-10-01T11:00:27.763Z,35.74
2022-10-01T11:05:33.435Z,35.60
2022-10-01T11:10:55.076Z,34.73
2022-10-01T11:16:44.129Z,34.30
2022-10-01T11:22:02.023Z,34.52
2022-10-01T11:27:36.463Z,34.13
2022-10-01T11:32:48.174Z,31.29
2022-10-01T11:38:07.773Z,31.22
2022-10-01T11:43:19.314Z,30.95
2022-10-01T11:48:31.806Z,28.67
2022-10-01T11:54:02.665Z,28.03
2022-10-01T11:59:36.912Z,28.67
2022-10-01T12:04:42.368Z,27.68
2022-10-01T12:10:22.854Z,25.59
2022-10-01T12:15:34.251Z,23.68
2022-10-01T12:20:48.535Z,22.35
2022-10-01T12:25:52.181Z,21.39
2022-10-01T12:31:17.337Z,20.94
2022-10-01T12:36:52.538Z,21.14
2022-10-01T12:42:15.495Z,21.32
2022-10-01T12:47:28.657Z,21.54
2022-10-01T12:52:41.604Z,21.27
2022-10-01T12:58:12.459Z,20.78
2022-10-01T13:04:03.045Z,20.51
2022-10-01T13:09:12.333Z,20.02
2022-10-01T13:14:18.310Z,19.46
2022-10-01T13:19:31.046Z,19.42
2022-10-01T13:25:02.014Z,19.54
2022-10-01T13:30:23.274Z,19.82
2022-10-01T13:35:36.631Z,20.28
2022-10-01T13:40:39.704Z,20.04
2022-10-01T13:45:46.192Z,19.97
2022-10-01T13:51:13.464Z,20.67
2022-10-01T13:56:33.502Z,22.09
2022-10-01T14:01:43.291Z,22.93
2022-10-01T14:06:53.818Z,22.87
2022-10-01T14:12:22.323Z,22.31
2022-10-01T14:17:29.225Z,22.29
2022-10-01T14:23:03.154Z,21.03
2022-10-01T14:28:39.338Z,19.79
2022-10-01T14:33:46.751Z,18.69
2022-10-01T14:38:49.550Z,17.93
2022-10-01T14:43:52.557Z,17.37
2022-10-01T14:49:00.095Z,16.90
2022-10-01T14:54:03.075Z,16.46
2022-10-01T14:59:23.118Z,16.06
2022-10-01T15:04:26.181Z,15.66
2022-10-01T15:09:33.910Z,15.37
2022-10-01T15:14:37.936Z,15.12
2022-10-01T15:19:45.435Z,14.94
2022-10-01T15:24:49.588Z,14.73
2022-10-01T15:29:56.799Z,14.54
2022-10-01T15:35:02.252Z,14.37
2022-10-01T15:40:20.415Z,14.21
2022-10-01T15:45:26.060Z,14.06
2022-10-01T15:50:37.488Z,13.88
2022-10-01T15:55:49.606Z,13.74
2022-10-01T16:01:15.318Z,13.62
2022-10-01T16:06:34.183Z,13.48
2022-10-01T16:11:56.803Z,13.32
2022-10-01T16:17:33.694Z,13.21
2022-10-01T16:22:37.828Z,13.08
2022-10-01T16:27:48.679Z,12.97
2022-10-01T16:32:51.622Z,12.89
2022-10-01T16:37:56.948Z,12.86
2022-10-01T16:43:01.218Z,12.84
2022-10-01T16:48:14.624Z,12.82
2022-10-01T16:53:18.708Z,12.80
2022-10-01T16:58:21.924Z,12.79
2022-10-01T17:03:24.924Z,12.75
2022-10-01T17:08:28.234Z,12.72
2022-10-01T17:13:33.991Z,12.69
2022-10-01T17:18:36.806Z,12.66
2022-10-01T17:23:39.712Z,12.67
2022-10-01T17:28:43.126Z,12.67
2022-10-01T17:33:45.943Z,12.65
2022-10-01T17:38:49.344Z,12.63
2022-10-01T17:43:52.556Z,12.63
2022-10-01T17:48:55.357Z,12.62
2022-10-01T17:53:59.901Z,12.61
2022-10-01T17:59:02.806Z,12.58
2022-10-01T18:04:06.016Z,12.56
2022-10-01T18:09:08.818Z,12.55
2022-10-01T18:14:11.725Z,12.51
2022-10-01T18:24:37.808Z,12.43
2022-10-01T18:29:40.918Z,12.39
2022-10-01T18:34:54.879Z,12.33
2022-10-01T18:40:07.823Z,12.29
2022-10-01T18:45:18.371Z,12.27
2022-10-01T18:50:53.256Z,12.24
2022-10-01T18:55:56.058Z,12.24
2022-10-01T19:01:43.733Z,12.22
2022-10-01T19:07:08.632Z,12.20
2022-10-01T19:12:20.245Z,12.18
2022-10-01T19:17:34.819Z,12.14
2022-10-01T19:23:16.843Z,12.12
2022-10-01T19:28:38.075Z,12.08
2022-10-01T19:33:51.937Z,12.05
2022-10-01T19:39:01.310Z,12.04
2022-10-01T19:44:13.498Z,12.01
2022-10-01T19:49:26.460Z,11.98
2022-10-01T19:54:36.833Z,11.95
2022-10-01T19:59:40.863Z,11.93
2022-10-01T20:04:55.953Z,11.91
2022-10-01T20:10:10.225Z,11.89
2022-10-01T20:15:31.868Z,11.88
2022-10-01T20:20:46.855Z,11.87
2022-10-01T20:26:14.588Z,11.77
2022-10-01T20:31:27.722Z,11.58
2022-10-01T20:36:46.258Z,11.43
2022-10-01T20:41:53.908Z,11.34
2022-10-01T20:47:07.937Z,11.29
2022-10-01T20:52:20.472Z,11.25
2022-10-01T20:57:53.411Z,11.24
2022-10-01T21:03:02.323Z,11.21
2022-10-01T21:08:11.063Z,11.16
2022-10-01T21:13:21.852Z,11.14
2022-10-01T21:18:48.103Z,11.11
2022-10-01T21:24:49.272Z,11.07
2022-10-01T21:30:08.873Z,11.07
2022-10-01T21:35:30.210Z,11.04
2022-10-01T21:40:58.438Z,10.98
2022-10-01T21:46:39.183Z,10.90
2022-10-01T21:52:05.040Z,10.81
2022-10-01T21:57:35.285Z,10.76
2022-10-01T22:02:56.415Z,10.69
2022-10-01T22:08:18.058Z,10.61
2022-10-01T22:13:35.199Z,10.55
2022-10-01T22:18:46.142Z,10.52
2022-10-01T22:23:58.199Z,10.49
2022-10-01T22:29:03.160Z,10.47
2022-10-01T22:34:12.891Z,10.47
2022-10-01T22:39:20.642Z,10.45
2022-10-01T22:44:24.570Z,10.43
2022-10-01T22:49:54.202Z,10.39
2022-10-01T22:55:00.281Z,10.38
2022-10-01T23:00:09.523Z,10.36
2022-10-01T23:05:12.437Z,10.34
2022-10-01T23:10:33.466Z,10.34
2022-10-01T23:15:56.990Z,10.35
2022-10-01T23:21:25.971Z,10.37
2022-10-01T23:26:46.842Z,10.38
2022-10-01T23:32:14.890Z,10.40
2022-10-01T23:37:43.393Z,10.44
2022-10-01T23:43:00.123Z,10.44
2022-10-01T23:48:28.449Z,10.48
2022-10-01T23:53:47.904Z,10.53
2022-10-01T23:58:54.759Z,10.59
